Time;durP1;ratioP1;P1;durP2;ratioP2;P2;SDS_P1;SDS_P2;PMS_P1;PMS_P2;Temp;Humidity;BMP_temperature;BMP_pressure;BME280_temperature;BME280_humidity;BME280_pressure;Samples;Min_cycle;Max_cycle;Signal;HPM_P1;HPM_P2
2022/04/09 00:00:58;;;;;;;6.10;4.03;;;;;;;22.29;27.30;95965.91;5076192;28;20414;-79
2022/04/09 00:03:24;;;;;;;8.13;5.93;;;;;;;23.15;26.99;95964.78;5073550;28;20448;-79
2022/04/09 00:05:50;;;;;;;8.10;5.35;;;;;;;23.40;27.17;95965.56;5075046;28;20485;-79
2022/04/09 00:08:17;;;;;;;11.88;8.23;;;;;;;22.25;28.82;95954.91;5074820;28;20482;-79
2022/04/09 00:10:43;;;;;;;7.88;5.45;;;;;;;23.15;27.81;95950.78;5072795;28;20098;-79
2022/04/09 00:13:09;;;;;;;8.50;5.32;;;;;;;22.74;27.59;95960.09;5072037;28;20559;-79
2022/04/09 00:15:35;;;;;;;7.18;4.80;;;;;;;23.10;26.51;95971.06;5072585;28;20031;-79
2022/04/09 00:18:01;;;;;;;4.10;3.60;;;;;;;23.47;27.26;95959.56;5071965;28;20036;-79
2022/04/09 00:20:27;;;;;;;6.32;5.13;;;;;;;23.57;26.73;95956.19;5074620;28;20035;-79
2022/04/09 00:22:53;;;;;;;5.75;5.15;;;;;;;24.46;25.48;95950.06;5078640;28;20417;-79
2022/04/09 00:25:24;;;;;;;5.05;4.53;;;;;;;24.60;25.09;95946.44;5072881;28;20041;-80
2022/04/09 00:27:51;;;;;;;4.20;3.75;;;;;;;25.63;23.95;95951.56;5073098;28;20029;-79
2022/04/09 00:30:17;;;;;;;5.47;3.33;;;;;;;26.53;22.75;95938.56;5073176;28;20025;-80
2022/04/09 00:32:43;;;;;;;6.45;4.57;;;;;;;26.19;22.81;95945.22;5070745;28;20422;-79
2022/04/09 00:35:09;;;;;;;3.33;2.67;;;;;;;26.01;22.87;95956.81;5075240;28;20382;-79
2022/04/09 00:37:45;;;;;;;4.35;3.38;;;;;;;26.34;22.58;95957.13;5075613;28;20040;-79
2022/04/09 00:40:14;;;;;;;3.97;3.17;;;;;;;26.47;22.74;95963.09;5080091;28;20358;-79
2022/04/09 00:42:42;;;;;;;3.67;3.03;;;;;;;26.53;22.55;95977.19;5079838;28;20073;-79
2022/04/09 00:45:12;;;;;;;5.10;3.60;;;;;;;26.80;22.22;95973.81;5075812;28;20492;-80
2022/04/09 00:47:38;;;;;;;5.37;3.37;;;;;;;27.07;21.96;95984.47;5081360;28;20033;-79
2022/04/09 00:50:07;;;;;;;5.18;3.65;;;;;;;27.55;21.03;95981.63;5077787;28;20037;-79
2022/04/09 00:52:35;;;;;;;18.10;9.48;;;;;;;28.03;20.41;95984.31;5079410;28;20028;-79
2022/04/09 00:55:04;;;;;;;4.47;3.28;;;;;;;28.03;20.35;95970.97;5081434;28;20386;-79
2022/04/09 00:57:34;;;;;;;4.03;2.97;;;;;;;27.90;20.46;95947.34;5077160;28;20039;-80
2022/04/09 01:00:09;;;;;;;3.80;2.65;;;;;;;27.92;20.50;95937.09;5082155;28;20528;-79
2022/04/09 01:02:44;;;;;;;5.03;3.25;;;;;;;27.65;21.03;95920.13;5077208;28;20060;-79
2022/04/09 01:05:11;;;;;;;5.07;2.88;;;;;;;27.42;21.10;95921.38;5074477;28;20033;-79
2022/04/09 01:07:38;;;;;;;3.30;2.65;;;;;;;27.77;20.94;95930.16;5075265;28;20028;-80
2022/04/09 01:10:08;;;;;;;3.47;2.65;;;;;;;27.46;21.18;95922.66;5076058;28;20097;-79
2022/04/09 01:12:35;;;;;;;4.43;3.33;;;;;;;27.26;21.50;95915.13;5080148;28;20040;-79
2022/04/09 01:15:09;;;;;;;4.57;2.80;;;;;;;27.57;20.95;95922.69;5081222;28;20043;-79
2022/04/09 01:17:38;;;;;;;3.67;2.70;;;;;;;27.97;20.47;95913.75;5076175;28;20123;-79
2022/04/09 01:20:15;;;;;;;5.18;3.42;;;;;;;28.35;19.97;95915.06;5076736;28;20489;-79
2022/04/09 01:22:41;;;;;;;4.00;2.80;;;;;;;28.47;19.81;95910.19;5078159;28;20028;-79
2022/04/09 01:25:07;;;;;;;4.53;2.97;;;;;;;28.40;19.91;95914.25;5073977;28;20053;-79
2022/04/09 01:27:34;;;;;;;3.08;2.72;;;;;;;28.38;19.71;95916.09;5075136;28;20036;-79
2022/04/09 01:30:00;;;;;;;5.90;3.53;;;;;;;28.63;19.71;95909.41;5073784;28;20069;-79
2022/04/09 01:32:26;;;;;;;7.05;3.75;;;;;;;28.71;19.50;95913.22;5078286;28;20085;-79
2022/04/09 01:34:52;;;;;;;5.68;3.72;;;;;;;28.85;19.66;95926.28;5071947;28;20075;-79
2022/04/09 01:37:19;;;;;;;4.55;3.22;;;;;;;28.95;19.44;95930.38;5074848;28;20029;-79
2022/04/09 01:39:45;;;;;;;5.88;3.65;;;;;;;28.89;19.60;95932.44;5076485;28;20033;-79
2022/04/09 01:42:11;;;;;;;6.72;4.38;;;;;;;28.49;19.88;95921.72;5077389;28;20029;-79
2022/04/09 01:44:37;;;;;;;8.43;4.18;;;;;;;28.62;19.92;95921.97;5073699;28;20039;-79
2022/04/09 01:47:06;;;;;;;7.90;4.85;;;;;;;28.74;19.62;95923.47;5074989;28;20036;-79
2022/04/09 01:49:32;;;;;;;5.63;4.15;;;;;;;28.55;19.96;95909.13;5075874;28;20068;-79
2022/04/09 01:51:58;;;;;;;5.43;4.05;;;;;;;28.56;19.86;95915.53;5071501;28;20472;-79
2022/04/09 01:54:24;;;;;;;7.35;4.47;;;;;;;28.46;19.94;95914.28;5076436;28;20076;-79
2022/04/09 01:56:50;;;;;;;7.53;4.68;;;;;;;28.59;19.81;95918.13;5078199;28;20035;-79
2022/04/09 01:59:16;;;;;;;5.90;4.15;;;;;;;28.78;19.44;95920.41;5076639;28;20028;-79
2022/04/09 02:01:42;;;;;;;5.20;3.72;;;;;;;29.00;19.00;95920.31;5077166;28;20089;-79
2022/04/09 02:04:08;;;;;;;7.20;4.07;;;;;;;29.18;19.17;95933.91;5074342;28;20066;-79
2022/04/09 02:06:34;;;;;;;6.05;4.50;;;;;;;29.10;19.31;95933.63;5074835;28;20127;-79
2022/04/09 02:09:01;;;;;;;7.78;4.13;;;;;;;29.15;19.08;95941.31;5082110;28;20038;-79
2022/04/09 02:11:27;;;;;;;6.32;4.63;;;;;;;29.29;19.05;95940.28;5071545;28;20102;-79
2022/04/09 02:13:53;;;;;;;7.70;4.47;;;;;;;29.26;19.26;95935.69;5076884;28;20119;-79
2022/04/09 02:16:19;;;;;;;5.40;3.83;;;;;;;28.85;19.62;95926.28;5075349;28;20032;-79
2022/04/09 02:18:45;;;;;;;5.50;3.95;;;;;;;28.08;20.49;95925.06;5074014;28;20031;-79
2022/04/09 02:21:11;;;;;;;5.38;4.03;;;;;;;27.72;21.12;95928.88;5075278;28;20036;-79
2022/04/09 02:23:37;;;;;;;7.40;4.43;;;;;;;27.86;20.70;95929.91;5074785;28;20093;-79
2022/04/09 02:26:04;;;;;;;7.95;4.45;;;;;;;28.13;20.67;95934.03;5074012;28;20052;-79
2022/04/09 02:28:31;;;;;;;5.75;4.28;;;;;;;28.39;19.99;95923.25;5070966;28;20028;-79
2022/04/09 02:30:57;;;;;;;7.32;4.80;;;;;;;28.33;20.15;95911.22;5073877;28;20127;-78
2022/04/09 02:33:23;;;;;;;9.85;5.35;;;;;;;27.95;20.65;95907.09;5071470;28;20029;-78
2022/04/09 02:35:49;;;;;;;7.25;5.10;;;;;;;27.96;20.64;95914.25;5073289;28;20040;-79
2022/04/09 02:38:15;;;;;;;6.03;4.22;;;;;;;27.89;20.77;95921.19;5070897;28;20037;-79
2022/04/09 02:40:41;;;;;;;6.88;4.72;;;;;;;28.15;20.51;95909.69;5072919;28;20070;-79
2022/04/09 02:43:10;;;;;;;6.10;4.05;;;;;;;27.98;20.46;95904.00;5075095;28;22557;-79
2022/04/09 02:45:36;;;;;;;7.10;4.55;;;;;;;27.93;20.55;95887.88;5074398;28;20053;-79
2022/04/09 02:48:02;;;;;;;8.38;4.22;;;;;;;27.87;20.43;95901.19;5076333;28;20043;-79
2022/04/09 02:50:28;;;;;;;7.38;5.15;;;;;;;27.46;20.78;95888.06;5074495;28;20466;-79
2022/04/09 02:52:54;;;;;;;6.65;4.70;;;;;;;27.03;21.58;95887.38;5078168;28;20037;-78
2022/04/09 02:55:20;;;;;;;6.97;4.57;;;;;;;26.80;21.93;95866.03;5075558;28;20028;-79
2022/04/09 02:57:46;;;;;;;6.68;4.38;;;;;;;26.86;21.86;95858.41;5076203;28;20086;-79
2022/04/09 03:00:13;;;;;;;8.70;5.22;;;;;;;27.28;21.13;95875.19;5074918;28;20028;-79
2022/04/09 03:02:40;;;;;;;7.85;5.00;;;;;;;27.53;20.81;95865.00;5074836;28;20033;-79
2022/04/09 03:05:07;;;;;;;8.82;5.63;;;;;;;27.73;20.53;95857.06;5080553;28;20082;-79
2022/04/09 03:07:33;;;;;;;7.35;4.75;;;;;;;27.88;20.58;95845.56;5073991;28;20474;-79
2022/04/09 03:10:00;;;;;;;9.15;5.25;;;;;;;27.38;21.04;95840.66;5074258;28;20025;-79
2022/04/09 03:12:26;;;;;;;9.32;5.43;;;;;;;27.10;21.43;95830.56;5075682;28;20571;-79
2022/04/09 03:14:52;;;;;;;5.82;3.92;;;;;;;27.38;21.04;95837.06;5071931;28;20031;-79
2022/04/09 03:17:18;;;;;;;7.15;4.68;;;;;;;27.06;21.49;95839.28;5073412;28;20028;-79
2022/04/09 03:19:44;;;;;;;6.90;3.90;;;;;;;26.89;21.99;95820.75;5073801;28;20036;-79
2022/04/09 03:22:10;;;;;;;13.68;5.03;;;;;;;26.45;22.36;95819.28;5073185;28;20050;-79
2022/04/09 03:24:36;;;;;;;10.90;5.07;;;;;;;26.21;22.88;95806.91;5075345;28;20085;-80
2022/04/09 03:27:02;;;;;;;10.35;6.43;;;;;;;25.93;23.07;95806.66;5073678;28;20036;-79
2022/04/09 03:29:28;;;;;;;10.20;5.68;;;;;;;26.20;22.83;95802.53;5072345;28;20040;-79
2022/04/09 03:31:55;;;;;;;9.38;5.13;;;;;;;26.48;22.50;95787.34;5074787;28;20489;-79
2022/04/09 03:34:22;;;;;;;9.90;5.78;;;;;;;26.34;22.47;95781.88;5072231;28;20025;-79
2022/04/09 03:36:48;;;;;;;11.52;6.63;;;;;;;26.17;22.84;95795.88;5074863;28;20024;-79
2022/04/09 03:39:14;;;;;;;9.50;5.38;;;;;;;26.48;22.47;95803.44;5073177;28;20036;-79
2022/04/09 03:41:40;;;;;;;13.13;6.93;;;;;;;26.85;21.91;95806.16;5073349;28;20421;-79
2022/04/09 03:44:06;;;;;;;9.07;4.95;;;;;;;26.85;21.91;95797.72;5070414;28;20038;-79
2022/04/09 03:46:32;;;;;;;13.77;7.78;;;;;;;26.66;22.16;95781.25;5073498;28;20098;-79
2022/04/09 03:48:58;;;;;;;11.75;6.35;;;;;;;26.36;22.56;95777.31;5071886;28;20028;-79
2022/04/09 03:51:24;;;;;;;11.00;7.00;;;;;;;26.05;23.07;95768.91;5073890;28;20043;-79
2022/04/09 03:53:50;;;;;;;10.02;5.82;;;;;;;26.07;23.09;95772.00;5077380;28;20051;-79
2022/04/09 03:56:17;;;;;;;11.10;6.53;;;;;;;25.19;24.08;95770.06;5072774;28;20024;-79
2022/04/09 03:58:43;;;;;;;9.57;5.43;;;;;;;25.13;24.33;95769.25;5074027;28;20083;-79
2022/04/09 04:01:10;;;;;;;9.77;5.70;;;;;;;25.57;23.94;95762.47;5073229;28;20504;-79
2022/04/09 04:03:36;;;;;;;10.45;7.00;;;;;;;25.34;24.18;95762.25;5072831;28;20024;-79
2022/04/09 04:06:03;;;;;;;9.02;5.85;;;;;;;25.59;23.77;95759.94;5071949;28;20040;-79
2022/04/09 04:08:29;;;;;;;10.00;6.93;;;;;;;24.85;24.71;95759.00;5071090;28;20036;-79
2022/04/09 04:10:55;;;;;;;9.25;5.95;;;;;;;25.04;24.81;95765.84;5076461;28;20039;-79
2022/04/09 04:13:21;;;;;;;11.70;6.90;;;;;;;24.90;24.88;95761.09;5072028;28;20036;-79
2022/04/09 04:15:47;;;;;;;11.20;6.93;;;;;;;23.56;26.44;95752.19;5076084;28;20036;-79
2022/04/09 04:18:13;;;;;;;8.82;5.82;;;;;;;24.51;25.99;95755.81;5081619;28;20024;-79
2022/04/09 04:20:39;;;;;;;9.13;5.38;;;;;;;24.85;25.59;95750.59;5075458;28;20070;-79
2022/04/09 04:23:05;;;;;;;12.80;7.97;;;;;;;25.10;24.93;95742.16;5078487;28;20040;-79
2022/04/09 04:25:31;;;;;;;10.35;4.78;;;;;;;25.90;23.89;95752.25;5079800;28;20083;-79
2022/04/09 04:27:58;;;;;;;9.63;6.20;;;;;;;25.35;24.05;95743.38;5078714;28;20033;-79
2022/04/09 04:30:24;;;;;;;10.85;6.50;;;;;;;24.93;24.85;95738.41;5077685;28;20498;-79
2022/04/09 04:32:50;;;;;;;7.40;5.32;;;;;;;24.89;24.88;95742.69;5078065;28;20453;-79
2022/04/09 04:35:16;;;;;;;10.45;6.65;;;;;;;24.50;25.34;95745.09;5077989;28;20478;-79
2022/04/09 04:37:45;;;;;;;9.82;6.05;;;;;;;24.99;24.93;95746.91;5075928;28;20031;-79
2022/04/09 04:40:13;;;;;;;6.45;4.55;;;;;;;25.64;24.45;95745.94;5078852;28;20040;-79
2022/04/09 04:42:40;;;;;;;8.60;5.00;;;;;;;25.85;23.92;95740.94;5083917;28;20032;-79
2022/04/09 04:45:07;;;;;;;9.55;4.65;;;;;;;25.47;24.54;95744.25;5078605;28;20466;-79
2022/04/09 04:47:41;;;;;;;10.55;6.28;;;;;;;26.27;23.34;95740.94;5080774;28;20033;-79
2022/04/09 04:50:07;;;;;;;9.35;5.63;;;;;;;26.05;23.43;95743.59;5076436;28;20040;-79
2022/04/09 04:52:33;;;;;;;8.02;5.20;;;;;;;26.35;23.36;95741.25;5076525;28;20567;-79
2022/04/09 04:54:59;;;;;;;10.02;5.30;;;;;;;25.88;23.49;95732.25;5074354;28;20525;-79
2022/04/09 04:57:25;;;;;;;10.38;6.07;;;;;;;24.72;25.02;95732.06;5080048;28;20029;-79
2022/04/09 04:59:51;;;;;;;11.00;6.70;;;;;;;24.84;25.26;95730.16;5074814;28;20033;-79
2022/04/09 05:02:17;;;;;;;9.23;4.78;;;;;;;25.32;24.96;95724.72;5075983;28;20047;-79
2022/04/09 05:04:43;;;;;;;8.45;5.10;;;;;;;26.09;23.67;95713.97;5074528;28;20029;-79
2022/04/09 05:07:10;;;;;;;7.22;4.88;;;;;;;26.54;23.25;95719.78;5076147;28;20397;-79
2022/04/09 05:09:36;;;;;;;9.68;5.53;;;;;;;26.01;23.48;95712.16;5079321;28;20028;-79
2022/04/09 05:12:02;;;;;;;7.00;4.22;;;;;;;26.11;23.78;95710.69;5078383;28;20101;-79
2022/04/09 05:14:29;;;;;;;7.63;4.95;;;;;;;25.77;24.08;95706.91;5071980;28;20474;-79
2022/04/09 05:16:57;;;;;;;11.50;5.93;;;;;;;25.53;24.19;95709.34;5075335;28;20036;-79
2022/04/09 05:19:23;;;;;;;9.80;5.25;;;;;;;25.73;24.27;95714.03;5076570;28;20119;-79
2022/04/09 05:21:49;;;;;;;9.27;5.40;;;;;;;25.92;23.86;95710.31;5074486;28;20048;-79
2022/04/09 05:24:15;;;;;;;8.45;5.20;;;;;;;26.25;23.54;95714.59;5068857;28;20049;-78
2022/04/09 05:26:41;;;;;;;10.20;5.85;;;;;;;25.24;24.75;95724.41;5077752;28;20075;-79
2022/04/09 05:29:07;;;;;;;9.40;5.93;;;;;;;24.22;26.54;95760.81;5075088;28;20494;-79
2022/04/09 05:31:33;;;;;;;13.25;6.65;;;;;;;22.06;29.52;95766.19;5077214;28;20501;-79
2022/04/09 05:33:59;;;;;;;14.48;8.60;;;;;;;21.34;31.04;95765.31;5073060;28;20043;-79
2022/04/09 05:36:25;;;;;;;15.95;9.00;;;;;;;21.33;31.31;95780.50;5076556;28;20033;-79
2022/04/09 05:38:51;;;;;;;19.83;11.10;;;;;;;19.70;34.69;95771.41;5073348;28;20044;-79
2022/04/09 05:41:17;;;;;;;19.63;11.30;;;;;;;17.39;38.93;95788.50;5081089;28;20028;-79
2022/04/09 05:43:44;;;;;;;20.17;11.57;;;;;;;17.20;40.08;95815.25;5076400;28;20040;-78
2022/04/09 05:46:10;;;;;;;20.40;11.05;;;;;;;17.65;38.88;95817.81;5070377;28;20466;-79
2022/04/09 05:48:36;;;;;;;15.02;9.90;;;;;;;16.95;40.52;95817.19;5071531;28;20527;-79
2022/04/09 05:51:02;;;;;;;19.05;10.40;;;;;;;17.42;39.58;95811.81;5073669;28;20035;-80
2022/04/09 05:53:29;;;;;;;25.38;12.50;;;;;;;17.61;40.10;95816.38;5074500;28;20056;-80
2022/04/09 05:55:55;;;;;;;19.65;10.63;;;;;;;16.93;41.00;95811.31;5074560;28;20056;-80
2022/04/09 05:58:21;;;;;;;17.45;10.57;;;;;;;18.25;37.81;95818.56;5073650;28;20040;-82
2022/04/09 06:00:47;;;;;;;16.35;10.10;;;;;;;17.89;38.58;95829.34;5075839;28;20439;-82
2022/04/09 06:03:14;;;;;;;18.92;9.73;;;;;;;16.69;40.89;95837.75;5072580;28;20090;-82
2022/04/09 06:05:40;;;;;;;20.10;9.27;;;;;;;15.59;43.60;95837.06;5073469;28;20081;-82
2022/04/09 06:08:06;;;;;;;13.40;7.53;;;;;;;15.62;43.81;95850.00;5078217;28;20024;-83
2022/04/09 06:10:32;;;;;;;15.52;7.20;;;;;;;16.47;41.34;95865.25;5076408;28;20435;-83
2022/04/09 06:12:58;;;;;;;14.15;7.32;;;;;;;17.06;40.45;95879.44;5075411;28;20032;-82
2022/04/09 06:15:24;;;;;;;12.18;6.35;;;;;;;17.83;38.37;95901.28;5078013;28;20082;-81
2022/04/09 06:17:50;;;;;;;9.68;5.32;;;;;;;20.69;32.94;95929.69;5080960;28;20036;-82
2022/04/09 06:20:16;;;;;;;9.85;5.75;;;;;;;19.51;34.14;95967.44;5072294;28;20029;-81
2022/04/09 06:22:42;;;;;;;14.43;5.65;;;;;;;19.82;33.65;95984.91;5076886;28;20055;-82
2022/04/09 06:25:09;;;;;;;7.75;5.30;;;;;;;19.19;34.93;95999.94;5074459;28;20100;-82
2022/04/09 06:27:39;;;;;;;6.13;3.80;;;;;;;18.92;35.08;96030.28;5076428;28;20400;-83
2022/04/09 06:30:06;;;;;;;6.68;3.47;;;;;;;19.62;34.17;96043.75;5077411;28;20031;-83
2022/04/09 06:32:32;;;;;;;4.10;2.75;;;;;;;19.91;33.36;96069.28;5077826;28;20085;-82
2022/04/09 06:34:58;;;;;;;5.60;3.63;;;;;;;20.25;32.70;96076.81;5075846;28;20077;-82
2022/04/09 06:37:27;;;;;;;5.90;3.20;;;;;;;20.56;32.08;96069.19;5075978;28;20057;-81
2022/04/09 06:39:53;;;;;;;4.50;2.88;;;;;;;21.11;31.52;96077.75;5079678;28;20060;-81
2022/04/09 06:42:19;;;;;;;6.40;2.75;;;;;;;19.75;32.96;96105.69;5077736;28;20028;-82
2022/04/09 06:44:46;;;;;;;3.78;2.80;;;;;;;20.52;31.33;96099.22;5075726;28;20026;-82
2022/04/09 06:47:12;;;;;;;3.65;2.10;;;;;;;21.35;30.51;96110.19;5078108;28;20024;-81
2022/04/09 06:49:38;;;;;;;1.60;1.48;;;;;;;20.74;30.46;96135.44;5076837;28;20055;-82
2022/04/09 06:52:05;;;;;;;3.35;1.67;;;;;;;18.86;32.82;96178.66;5072490;28;20422;-83
2022/04/09 06:54:32;;;;;;;0.80;0.70;;;;;;;18.00;33.35;96195.47;5079030;28;20054;-83
2022/04/09 06:56:58;;;;;;;1.02;0.82;;;;;;;18.62;32.52;96206.00;5074053;28;20123;-82
2022/04/09 06:59:24;;;;;;;1.02;0.70;;;;;;;18.94;32.24;96219.72;5074252;28;20041;-82
2022/04/09 07:01:50;;;;;;;1.10;0.63;;;;;;;19.04;31.52;96228.94;5073852;28;20086;-82
2022/04/09 07:04:16;;;;;;;1.42;0.70;;;;;;;21.44;28.62;96234.31;5073936;28;20037;-84
2022/04/09 07:06:45;;;;;;;0.93;0.63;;;;;;;21.29;27.85;96260.00;5072101;28;20107;-83
2022/04/09 07:09:12;;;;;;;0.80;0.40;;;;;;;21.81;27.15;96263.88;5074804;28;20474;-84
2022/04/09 07:11:39;;;;;;;1.23;0.80;;;;;;;21.13;27.54;96276.97;5074667;28;20032;-84
2022/04/09 07:14:05;;;;;;;1.73;0.70;;;;;;;20.78;27.74;96308.97;5073066;28;20032;-83
2022/04/09 07:16:31;;;;;;;1.33;0.50;;;;;;;19.93;29.13;96322.28;5085386;28;20085;-82
2022/04/09 07:18:57;;;;;;;1.65;0.65;;;;;;;20.83;28.08;96321.56;5084189;28;20098;-83
2022/04/09 07:21:23;;;;;;;1.23;0.40;;;;;;;19.84;28.75;96324.97;5072980;28;20020;-84
2022/04/09 07:23:49;;;;;;;0.38;0.32;;;;;;;20.16;28.80;96344.22;5087834;28;20559;-84
2022/04/09 07:26:20;;;;;;;1.25;0.60;;;;;;;20.88;27.71;96351.66;5075074;28;20551;-83
2022/04/09 07:28:46;;;;;;;1.98;1.13;;;;;;;21.05;27.72;96359.41;5078351;28;20132;-84
2022/04/09 07:31:12;;;;;;;2.25;0.75;;;;;;;20.37;28.38;96376.19;5076646;28;20029;-84
2022/04/09 07:33:38;;;;;;;1.90;0.98;;;;;;;20.68;28.18;96385.44;5073688;28;20048;-83
2022/04/09 07:36:05;;;;;;;2.83;0.82;;;;;;;20.79;27.80;96382.28;5068839;28;20032;-83
2022/04/09 07:38:31;;;;;;;1.30;0.70;;;;;;;20.77;27.57;96390.31;5072825;28;20039;-83
2022/04/09 07:40:57;;;;;;;1.20;0.80;;;;;;;21.07;27.29;96400.81;5072894;28;20051;-83
2022/04/09 07:43:23;;;;;;;1.23;0.75;;;;;;;20.48;28.03;96405.25;5073190;28;20508;-84
2022/04/09 07:45:49;;;;;;;1.17;0.60;;;;;;;21.28;27.03;96430.75;5075579;28;20032;-84
2022/04/09 07:48:15;;;;;;;0.95;0.77;;;;;;;21.51;26.69;96449.81;5072818;28;20520;-83
2022/04/09 07:50:41;;;;;;;1.73;0.70;;;;;;;20.18;27.81;96481.06;5071063;28;20044;-85
2022/04/09 07:53:09;;;;;;;3.38;0.90;;;;;;;20.14;28.13;96499.13;5072932;28;20032;-84
2022/04/09 07:55:35;;;;;;;0.98;0.77;;;;;;;19.32;29.59;96500.75;5074302;28;20036;-85
2022/04/09 07:58:02;;;;;;;1.15;0.80;;;;;;;21.59;26.50;96492.19;5073574;28;20045;-84
2022/04/09 08:00:28;;;;;;;1.42;0.80;;;;;;;21.76;25.86;96510.31;5073969;28;20500;-84
2022/04/09 08:02:54;;;;;;;0.55;0.55;;;;;;;20.98;26.62;96529.06;5072826;28;20028;-85
2022/04/09 08:05:20;;;;;;;1.42;0.77;;;;;;;21.83;25.87;96532.41;5077860;28;20043;-85
2022/04/09 08:07:47;;;;;;;1.15;0.60;;;;;;;21.43;25.79;96531.47;5076433;28;20078;-87
2022/04/09 08:10:14;;;;;;;2.97;1.15;;;;;;;21.60;25.42;96544.03;5075676;28;20474;-87
2022/04/09 08:12:45;;;;;;;1.73;1.20;;;;;;;20.78;26.44;96551.63;5074817;28;20056;-85
2022/04/09 08:15:12;;;;;;;0.93;0.70;;;;;;;20.75;26.67;96563.69;5077748;28;20039;-85
2022/04/09 08:17:39;;;;;;;1.00;0.80;;;;;;;21.32;26.02;96574.53;5073064;28;20064;-85
2022/04/09 08:20:07;;;;;;;4.00;1.58;;;;;;;20.31;27.06;96592.56;5077258;28;20036;-85
2022/04/09 08:22:33;;;;;;;2.67;1.33;;;;;;;19.94;27.94;96591.25;5071481;28;20131;-85
2022/04/09 08:25:01;;;;;;;1.75;1.33;;;;;;;20.09;27.65;96600.00;5074693;28;20542;-86
2022/04/09 08:27:28;;;;;;;1.98;1.17;;;;;;;19.89;27.98;96608.50;5073853;28;20056;-85
2022/04/09 08:29:54;;;;;;;3.28;1.20;;;;;;;20.81;26.84;96628.84;5076885;28;20028;-85
2022/04/09 08:32:22;;;;;;;1.83;1.42;;;;;;;20.57;27.20;96644.34;5078202;28;20547;-86
2022/04/09 08:34:49;;;;;;;2.13;1.90;;;;;;;20.52;27.00;96647.69;5077948;28;20043;-84
2022/04/09 08:37:15;;;;;;;2.78;2.08;;;;;;;20.88;26.44;96655.72;5074937;28;20032;-84
2022/04/09 08:39:41;;;;;;;2.55;1.52;;;;;;;20.36;27.25;96656.91;5077858;28;20097;-83
2022/04/09 08:42:08;;;;;;;2.30;1.88;;;;;;;21.15;26.30;96661.66;5074384;28;20093;-83
2022/04/09 08:44:35;;;;;;;2.05;1.85;;;;;;;21.15;25.89;96650.47;5077549;28;20039;-83
2022/04/09 08:47:01;;;;;;;3.13;1.95;;;;;;;20.59;26.39;96664.19;5076208;28;20036;-83
2022/04/09 08:49:32;;;;;;;3.13;2.25;;;;;;;20.24;27.33;96666.03;5077440;28;20021;-84
2022/04/09 08:51:59;;;;;;;3.03;2.35;;;;;;;20.67;26.29;96682.28;5079015;28;20538;-85
2022/04/09 08:54:25;;;;;;;2.78;1.85;;;;;;;18.90;29.17;96675.09;5075434;28;20081;-84
2022/04/09 08:56:52;;;;;;;2.10;1.70;;;;;;;18.12;30.29;96705.75;5075773;28;20080;-81
2022/04/09 08:59:18;;;;;;;2.72;1.58;;;;;;;17.71;31.01;96725.59;5076356;28;20033;-82
2022/04/09 09:01:44;;;;;;;2.05;1.83;;;;;;;19.01;29.25;96725.69;5077812;28;20036;-84
2022/04/09 09:04:10;;;;;;;2.95;1.92;;;;;;;18.97;28.91;96735.31;5080274;28;20033;-84
2022/04/09 09:06:40;;;;;;;2.53;2.33;;;;;;;20.10;27.86;96743.63;5075174;28;20024;-85
2022/04/09 09:09:07;;;;;;;2.70;2.42;;;;;;;21.02;25.99;96739.78;5080435;28;20568;-83
2022/04/09 09:11:48;;;;;;;3.83;2.20;;;;;;;21.16;26.05;96742.16;5075623;28;20059;-84
2022/04/09 09:14:34;;;;;;;4.97;2.05;;;;;;;22.19;24.87;96727.56;5082941;28;20043;-84
2022/04/09 09:17:02;;;;;;;2.65;2.15;;;;;;;21.70;25.61;96744.78;5094632;28;20089;-84
2022/04/09 09:19:41;;;;;;;3.05;2.17;;;;;;;22.06;25.39;96761.13;5092780;28;20481;-84
2022/04/09 09:22:07;;;;;;;2.55;2.20;;;;;;;21.67;26.17;96772.81;5084480;28;20079;-84
2022/04/09 09:24:33;;;;;;;1.80;1.70;;;;;;;21.39;26.46;96787.69;5094114;28;20123;-84
2022/04/09 09:27:01;;;;;;;2.75;2.10;;;;;;;21.93;25.58;96796.72;5093891;28;20117;-84
2022/04/09 09:29:29;;;;;;;1.58;1.38;;;;;;;21.52;25.67;96802.47;5087380;28;20032;-83
2022/04/09 09:31:58;;;;;;;1.77;1.30;;;;;;;20.82;26.27;96802.59;5081206;28;20048;-83
2022/04/09 09:34:24;;;;;;;2.83;1.60;;;;;;;21.48;25.46;96808.13;5075512;28;20067;-83
2022/04/09 09:36:50;;;;;;;2.42;1.92;;;;;;;22.14;24.89;96829.56;5091479;28;20040;-83
2022/04/09 09:39:22;;;;;;;1.95;1.70;;;;;;;22.29;24.49;96830.63;5086687;28;20107;-83
2022/04/09 09:41:59;;;;;;;1.90;1.63;;;;;;;22.14;24.44;96835.13;5095353;28;20454;-83
2022/04/09 09:44:31;;;;;;;1.65;1.30;;;;;;;22.77;23.66;96829.34;5091684;28;20054;-83
2022/04/09 09:47:07;;;;;;;1.58;1.42;;;;;;;23.09;22.96;96836.56;5088548;28;20082;-83
2022/04/09 09:49:38;;;;;;;1.70;1.27;;;;;;;23.00;23.59;96856.88;5081893;28;20032;-83
2022/04/09 09:52:08;;;;;;;;;;;;;;;22.96;23.26;96866.66;5095651;28;20032;-83
2022/04/09 09:54:53;;;;;;;4.68;2.20;;;;;;;23.29;22.91;96865.00;5086446;28;20010;-83
2022/04/09 09:57:20;;;;;;;3.53;1.80;;;;;;;24.06;22.36;96864.00;5082204;28;20024;-83
2022/04/09 09:59:48;;;;;;;2.55;2.35;;;;;;;24.53;21.57;96872.00;5084882;28;20028;-83
2022/04/09 10:02:20;;;;;;;4.32;2.05;;;;;;;24.14;21.97;96872.88;5076853;28;20059;-83
2022/04/09 10:04:47;;;;;;;5.55;2.22;;;;;;;23.94;21.97;96876.84;5088706;28;20068;-83
2022/04/09 10:07:15;;;;;;;3.45;2.20;;;;;;;23.40;23.04;96878.63;5093561;28;20105;-82
2022/04/09 10:09:41;;;;;;;8.85;4.07;;;;;;;24.31;22.50;96888.19;5094751;28;20452;-82
2022/04/09 10:12:22;;;;;;;5.97;4.00;;;;;;;24.74;21.92;96890.75;5091088;28;20036;-82
2022/04/09 10:14:52;;;;;;;5.30;2.22;;;;;;;24.34;21.50;96892.88;5102611;28;20058;-82
2022/04/09 10:17:20;;;;;;;5.68;2.92;;;;;;;23.83;22.47;96904.53;5085849;28;20031;-82
2022/04/09 10:19:53;;;;;;;3.00;2.53;;;;;;;23.28;22.82;96897.81;5080649;28;20489;-82
2022/04/09 10:22:19;;;;;;;4.90;2.97;;;;;;;22.80;23.72;96894.81;5091985;28;20028;-83
2022/04/09 10:24:47;;;;;;;4.18;2.42;;;;;;;23.43;23.82;96903.72;5092743;28;20040;-83
2022/04/09 10:27:32;;;;;;;3.25;2.25;;;;;;;23.59;22.56;96906.28;5087309;28;20390;-83
2022/04/09 10:30:02;;;;;;;3.88;3.22;;;;;;;22.92;23.67;96913.59;5080846;28;20032;-83
2022/04/09 10:32:43;;;;;;;5.00;3.00;;;;;;;22.45;24.31;96911.56;5073622;28;20044;-83
2022/04/09 10:35:38;;;;;;;3.30;2.57;;;;;;;22.19;24.46;96917.66;5073837;28;20103;-83
2022/04/09 10:38:12;;;;;;;2.97;2.33;;;;;;;23.30;23.73;96914.16;5074323;28;20601;-82
2022/04/09 10:40:53;;;;;;;4.18;2.88;;;;;;;23.28;23.53;96913.84;5086269;28;20477;-83
2022/04/09 10:43:22;;;;;;;3.88;3.40;;;;;;;23.96;22.88;96924.06;5093502;28;20044;-83
2022/04/09 10:46:05;;;;;;;5.05;2.63;;;;;;;24.26;22.36;96934.47;5091524;28;20555;-83
2022/04/09 10:48:47;;;;;;;3.25;2.83;;;;;;;24.33;22.16;96939.78;5082602;28;20192;-83
2022/04/09 10:51:18;;;;;;;3.67;2.78;;;;;;;23.86;22.60;96940.06;5081874;28;20442;-83
2022/04/09 10:53:48;;;;;;;4.47;2.40;;;;;;;23.71;23.04;96929.84;5088167;28;20393;-83
2022/04/09 10:56:30;;;;;;;3.80;3.17;;;;;;;24.00;22.50;96936.69;5073037;28;20040;-83
2022/04/09 10:59:29;;;;;;;3.38;2.60;;;;;;;23.51;23.29;96935.81;5081778;28;20028;-83
2022/04/09 11:01:56;;;;;;;4.80;3.47;;;;;;;23.36;23.07;96932.00;5073321;28;20024;-83
2022/04/09 11:04:36;;;;;;;6.55;3.50;;;;;;;22.84;23.00;96920.66;5077888;28;20044;-82
2022/04/09 11:07:23;;;;;;;4.75;3.67;;;;;;;22.95;23.09;96926.66;5090202;28;20025;-82
2022/04/09 11:09:54;;;;;;;6.60;3.70;;;;;;;23.78;22.87;96924.75;5075996;28;20028;-82
2022/04/09 11:12:38;;;;;;;4.05;3.38;;;;;;;23.60;22.62;96935.84;5073935;28;20119;-82
2022/04/09 11:15:16;;;;;;;4.90;3.90;;;;;;;23.94;22.68;96954.56;5081527;28;20028;-82
2022/04/09 11:17:45;;;;;;;3.75;3.35;;;;;;;24.60;22.28;96961.53;5093649;28;20036;-82
2022/04/09 11:20:13;;;;;;;4.35;3.67;;;;;;;23.58;22.73;96974.75;5089392;28;20082;-81
2022/04/09 11:22:45;;;;;;;5.88;4.72;;;;;;;23.12;23.42;96984.03;5072386;28;20028;-82
2022/04/09 11:25:32;;;;;;;6.55;5.03;;;;;;;22.24;23.94;96979.38;5075826;28;20040;-82
2022/04/09 11:28:17;;;;;;;5.50;3.88;;;;;;;23.14;23.35;96984.38;5084791;28;20036;-81
2022/04/09 11:31:00;;;;;;;6.10;4.35;;;;;;;24.28;22.24;96992.91;5085403;28;20047;-82
2022/04/09 11:33:26;;;;;;;7.20;4.05;;;;;;;24.90;21.41;96997.16;5085931;28;20036;-81
2022/04/09 11:35:53;;;;;;;8.68;4.25;;;;;;;25.12;21.18;97002.66;5071471;28;20033;-81